LBV weather

Libreville Leon M'ba International Airport
Libreville, Estuaire Province, Gabon

Public forecast

Using degrees Celsius for public forecast. Weather courtesy of forecast.io.

Current aviation weather report (METAR) for Libreville Leon M'ba International Airport

Retrieved 2019/10/18 16:30 UTC (54 minutes ago):

FOOL 181630Z 24007KT 200V270 9999 SCT013 FEW020CB 28/24 Q1009 NOSIG

Aviation forecast (TAF) for Libreville Leon M'ba International Airport

Retrieved 2019/10/18 12:30 UTC (5 hours ago):

TAF TAF FOOL 181135Z 1812/1912